sensor_id;sensor_type;location;lat;lon;timestamp;P1;durP1;ratioP1;P2;durP2;ratioP2
7495;SDS011;3789;47.064;15.482;2023-04-25T00:00:07;6.53;;;5.23;;
7495;SDS011;3789;47.064;15.482;2023-04-25T00:02:36;5.63;;;5.03;;
7495;SDS011;3789;47.064;15.482;2023-04-25T00:08:54;6.43;;;5.27;;
7495;SDS011;3789;47.064;15.482;2023-04-25T00:11:24;6.10;;;5.60;;
7495;SDS011;3789;47.064;15.482;2023-04-25T00:13:53;8.07;;;5.83;;
7495;SDS011;3789;47.064;15.482;2023-04-25T00:16:25;5.87;;;5.30;;
7495;SDS011;3789;47.064;15.482;2023-04-25T00:19:02;6.80;;;6.13;;
7495;SDS011;3789;47.064;15.482;2023-04-25T00:21:31;5.93;;;5.43;;
7495;SDS011;3789;47.064;15.482;2023-04-25T00:24:02;7.00;;;6.10;;
7495;SDS011;3789;47.064;15.482;2023-04-25T00:26:33;6.87;;;6.17;;
7495;SDS011;3789;47.064;15.482;2023-04-25T00:29:03;6.97;;;6.20;;
7495;SDS011;3789;47.064;15.482;2023-04-25T00:31:34;7.53;;;6.47;;
7495;SDS011;3789;47.064;15.482;2023-04-25T00:34:01;6.80;;;6.17;;
7495;SDS011;3789;47.064;15.482;2023-04-25T00:36:33;8.60;;;6.40;;
7495;SDS011;3789;47.064;15.482;2023-04-25T00:39:03;7.87;;;7.07;;
7495;SDS011;3789;47.064;15.482;2023-04-25T00:41:38;7.40;;;6.70;;
7495;SDS011;3789;47.064;15.482;2023-04-25T00:44:15;7.37;;;6.63;;
7495;SDS011;3789;47.064;15.482;2023-04-25T00:46:49;8.57;;;7.13;;
7495;SDS011;3789;47.064;15.482;2023-04-25T00:49:23;8.00;;;7.20;;
7495;SDS011;3789;47.064;15.482;2023-04-25T00:51:51;7.87;;;6.97;;
7495;SDS011;3789;47.064;15.482;2023-04-25T00:54:20;8.73;;;7.93;;
7495;SDS011;3789;47.064;15.482;2023-04-25T00:56:49;10.80;;;7.70;;
7495;SDS011;3789;47.064;15.482;2023-04-25T00:59:18;9.73;;;7.63;;
7495;SDS011;3789;47.064;15.482;2023-04-25T01:01:48;9.07;;;7.90;;
7495;SDS011;3789;47.064;15.482;2023-04-25T01:04:19;8.57;;;7.67;;
7495;SDS011;3789;47.064;15.482;2023-04-25T01:06:50;9.37;;;8.27;;
7495;SDS011;3789;47.064;15.482;2023-04-25T01:09:20;9.07;;;7.33;;
7495;SDS011;3789;47.064;15.482;2023-04-25T01:11:51;9.50;;;7.30;;
7495;SDS011;3789;47.064;15.482;2023-04-25T01:14:19;8.70;;;7.77;;
7495;SDS011;3789;47.064;15.482;2023-04-25T01:16:49;10.30;;;8.23;;
7495;SDS011;3789;47.064;15.482;2023-04-25T01:19:19;8.97;;;8.07;;
7495;SDS011;3789;47.064;15.482;2023-04-25T01:21:51;9.53;;;7.73;;
7495;SDS011;3789;47.064;15.482;2023-04-25T01:24:29;7.37;;;6.67;;
7495;SDS011;3789;47.064;15.482;2023-04-25T01:27:02;7.20;;;6.50;;
7495;SDS011;3789;47.064;15.482;2023-04-25T01:29:33;6.83;;;6.20;;
7495;SDS011;3789;47.064;15.482;2023-04-25T01:32:04;7.07;;;6.47;;
7495;SDS011;3789;47.064;15.482;2023-04-25T01:34:36;8.03;;;6.63;;
7495;SDS011;3789;47.064;15.482;2023-04-25T01:37:06;6.87;;;6.27;;
7495;SDS011;3789;47.064;15.482;2023-04-25T01:39:37;7.60;;;5.90;;
7495;SDS011;3789;47.064;15.482;2023-04-25T01:42:14;7.37;;;6.63;;
7495;SDS011;3789;47.064;15.482;2023-04-25T01:44:49;6.33;;;5.73;;
7495;SDS011;3789;47.064;15.482;2023-04-25T01:47:18;6.37;;;5.77;;
7495;SDS011;3789;47.064;15.482;2023-04-25T01:49:47;7.20;;;6.43;;
7495;SDS011;3789;47.064;15.482;2023-04-25T01:52:17;6.53;;;5.93;;
7495;SDS011;3789;47.064;15.482;2023-04-25T01:54:57;6.53;;;5.93;;
7495;SDS011;3789;47.064;15.482;2023-04-25T01:57:28;6.40;;;5.80;;
7495;SDS011;3789;47.064;15.482;2023-04-25T02:00:02;6.37;;;5.87;;
7495;SDS011;3789;47.064;15.482;2023-04-25T02:02:36;7.93;;;5.87;;
7495;SDS011;3789;47.064;15.482;2023-04-25T02:05:05;7.50;;;6.70;;
7495;SDS011;3789;47.064;15.482;2023-04-25T02:07:37;7.20;;;6.50;;
7495;SDS011;3789;47.064;15.482;2023-04-25T02:10:07;7.73;;;6.93;;
7495;SDS011;3789;47.064;15.482;2023-04-25T02:12:38;7.93;;;7.13;;
7495;SDS011;3789;47.064;15.482;2023-04-25T02:15:09;7.70;;;6.67;;
7495;SDS011;3789;47.064;15.482;2023-04-25T02:17:39;7.50;;;6.80;;
7495;SDS011;3789;47.064;15.482;2023-04-25T02:20:17;7.23;;;6.50;;
7495;SDS011;3789;47.064;15.482;2023-04-25T02:22:54;8.40;;;7.60;;
7495;SDS011;3789;47.064;15.482;2023-04-25T02:25:24;7.40;;;6.70;;
7495;SDS011;3789;47.064;15.482;2023-04-25T02:28:01;7.53;;;6.73;;
7495;SDS011;3789;47.064;15.482;2023-04-25T02:30:33;7.97;;;4.73;;
7495;SDS011;3789;47.064;15.482;2023-04-25T02:33:05;6.17;;;4.70;;
7495;SDS011;3789;47.064;15.482;2023-04-25T02:35:33;5.57;;;5.03;;
7495;SDS011;3789;47.064;15.482;2023-04-25T02:38:02;5.53;;;5.03;;
7495;SDS011;3789;47.064;15.482;2023-04-25T02:40:31;6.60;;;5.63;;
7495;SDS011;3789;47.064;15.482;2023-04-25T02:43:00;6.33;;;5.73;;
7495;SDS011;3789;47.064;15.482;2023-04-25T02:45:31;5.73;;;5.23;;
7495;SDS011;3789;47.064;15.482;2023-04-25T02:48:02;6.43;;;5.70;;
7495;SDS011;3789;47.064;15.482;2023-04-25T02:50:30;5.73;;;4.37;;
7495;SDS011;3789;47.064;15.482;2023-04-25T02:53:00;4.67;;;4.17;;
7495;SDS011;3789;47.064;15.482;2023-04-25T02:55:29;5.97;;;4.33;;
7495;SDS011;3789;47.064;15.482;2023-04-25T02:57:57;4.13;;;3.70;;
7495;SDS011;3789;47.064;15.482;2023-04-25T03:00:25;5.27;;;3.93;;
7495;SDS011;3789;47.064;15.482;2023-04-25T03:02:57;4.67;;;3.93;;
7495;SDS011;3789;47.064;15.482;2023-04-25T03:05:26;4.47;;;4.00;;
7495;SDS011;3789;47.064;15.482;2023-04-25T03:07:56;5.07;;;4.43;;
7495;SDS011;3789;47.064;15.482;2023-04-25T03:10:27;5.40;;;4.90;;
7495;SDS011;3789;47.064;15.482;2023-04-25T03:12:56;6.77;;;5.93;;
7495;SDS011;3789;47.064;15.482;2023-04-25T03:15:26;6.73;;;6.03;;
7495;SDS011;3789;47.064;15.482;2023-04-25T03:17:56;6.83;;;6.17;;
7495;SDS011;3789;47.064;15.482;2023-04-25T03:20:33;6.50;;;5.97;;
7495;SDS011;3789;47.064;15.482;2023-04-25T03:23:08;6.53;;;5.70;;
7495;SDS011;3789;47.064;15.482;2023-04-25T03:25:39;5.77;;;5.23;;
7495;SDS011;3789;47.064;15.482;2023-04-25T03:28:09;6.17;;;5.30;;
7495;SDS011;3789;47.064;15.482;2023-04-25T03:30:39;4.83;;;4.33;;
7495;SDS011;3789;47.064;15.482;2023-04-25T03:33:10;5.53;;;5.00;;
7495;SDS011;3789;47.064;15.482;2023-04-25T03:35:38;6.03;;;5.20;;
7495;SDS011;3789;47.064;15.482;2023-04-25T03:38:08;5.20;;;4.67;;
7495;SDS011;3789;47.064;15.482;2023-04-25T03:40:39;5.53;;;4.77;;
7495;SDS011;3789;47.064;15.482;2023-04-25T03:43:08;5.30;;;4.83;;
7495;SDS011;3789;47.064;15.482;2023-04-25T03:45:37;6.33;;;5.00;;
7495;SDS011;3789;47.064;15.482;2023-04-25T03:48:06;8.20;;;5.80;;
7495;SDS011;3789;47.064;15.482;2023-04-25T03:50:35;21.60;;;7.50;;
7495;SDS011;3789;47.064;15.482;2023-04-25T03:53:06;12.00;;;7.93;;
7495;SDS011;3789;47.064;15.482;2023-04-25T03:55:35;7.53;;;6.73;;
7495;SDS011;3789;47.064;15.482;2023-04-25T03:58:05;17.00;;;6.93;;
7495;SDS011;3789;47.064;15.482;2023-04-25T04:00:36;15.17;;;7.40;;
7495;SDS011;3789;47.064;15.482;2023-04-25T04:03:04;9.63;;;7.30;;
7495;SDS011;3789;47.064;15.482;2023-04-25T04:05:34;14.93;;;8.10;;
7495;SDS011;3789;47.064;15.482;2023-04-25T04:08:05;10.00;;;9.00;;
7495;SDS011;3789;47.064;15.482;2023-04-25T04:10:38;16.90;;;9.17;;
7495;SDS011;3789;47.064;15.482;2023-04-25T04:13:06;22.47;;;9.33;;
7495;SDS011;3789;47.064;15.482;2023-04-25T04:15:35;12.80;;;8.57;;
7495;SDS011;3789;47.064;15.482;2023-04-25T04:18:10;20.77;;;8.90;;
7495;SDS011;3789;47.064;15.482;2023-04-25T04:20:48;28.50;;;9.57;;
7495;SDS011;3789;47.064;15.482;2023-04-25T04:23:16;17.10;;;10.33;;
7495;SDS011;3789;47.064;15.482;2023-04-25T04:25:44;13.50;;;9.17;;
7495;SDS011;3789;47.064;15.482;2023-04-25T04:28:16;14.30;;;9.73;;
7495;SDS011;3789;47.064;15.482;2023-04-25T04:30:46;13.13;;;9.60;;
7495;SDS011;3789;47.064;15.482;2023-04-25T04:33:21;11.60;;;9.73;;
7495;SDS011;3789;47.064;15.482;2023-04-25T04:35:53;10.27;;;9.07;;
7495;SDS011;3789;47.064;15.482;2023-04-25T04:38:33;9.13;;;8.10;;
7495;SDS011;3789;47.064;15.482;2023-04-25T04:41:08;9.40;;;5.77;;
7495;SDS011;3789;47.064;15.482;2023-04-25T04:43:39;10.43;;;5.80;;
7495;SDS011;3789;47.064;15.482;2023-04-25T04:46:06;5.53;;;5.00;;
7495;SDS011;3789;47.064;15.482;2023-04-25T04:48:37;5.20;;;4.80;;
7495;SDS011;3789;47.064;15.482;2023-04-25T04:51:15;4.60;;;4.20;;
7495;SDS011;3789;47.064;15.482;2023-04-25T04:53:45;4.40;;;4.00;;
7495;SDS011;3789;47.064;15.482;2023-04-25T04:56:18;5.23;;;3.93;;
7495;SDS011;3789;47.064;15.482;2023-04-25T04:58:49;5.07;;;3.67;;
7495;SDS011;3789;47.064;15.482;2023-04-25T05:01:19;4.57;;;4.13;;
7495;SDS011;3789;47.064;15.482;2023-04-25T05:03:50;5.37;;;3.83;;
7495;SDS011;3789;47.064;15.482;2023-04-25T05:06:19;3.70;;;3.40;;
7495;SDS011;3789;47.064;15.482;2023-04-25T05:08:48;4.00;;;3.53;;
7495;SDS011;3789;47.064;15.482;2023-04-25T05:11:16;4.27;;;3.60;;
7495;SDS011;3789;47.064;15.482;2023-04-25T05:13:47;3.80;;;3.40;;
7495;SDS011;3789;47.064;15.482;2023-04-25T05:16:19;16.40;;;4.00;;
7495;SDS011;3789;47.064;15.482;2023-04-25T05:18:49;6.10;;;4.30;;
7495;SDS011;3789;47.064;15.482;2023-04-25T05:21:18;9.48;;;4.05;;
7495;SDS011;3789;47.064;15.482;2023-04-25T05:23:47;3.63;;;3.33;;
7495;SDS011;3789;47.064;15.482;2023-04-25T05:26:18;3.63;;;3.33;;
7495;SDS011;3789;47.064;15.482;2023-04-25T05:28:52;5.03;;;3.38;;
7495;SDS011;3789;47.064;15.482;2023-04-25T05:31:29;4.07;;;3.00;;
7495;SDS011;3789;47.064;15.482;2023-04-25T05:34:05;3.70;;;3.28;;
7495;SDS011;3789;47.064;15.482;2023-04-25T05:36:34;4.47;;;3.42;;
7495;SDS011;3789;47.064;15.482;2023-04-25T05:39:11;3.70;;;3.40;;
7495;SDS011;3789;47.064;15.482;2023-04-25T05:41:42;4.10;;;3.20;;
7495;SDS011;3789;47.064;15.482;2023-04-25T05:44:14;3.83;;;3.45;;
7495;SDS011;3789;47.064;15.482;2023-04-25T05:46:44;3.58;;;3.25;;
7495;SDS011;3789;47.064;15.482;2023-04-25T05:49:14;3.60;;;3.30;;
7495;SDS011;3789;47.064;15.482;2023-04-25T05:51:52;4.03;;;3.45;;
7495;SDS011;3789;47.064;15.482;2023-04-25T05:54:22;3.78;;;3.40;;
7495;SDS011;3789;47.064;15.482;2023-04-25T05:56:51;3.88;;;3.55;;
7495;SDS011;3789;47.064;15.482;2023-04-25T05:59:20;3.88;;;3.38;;
7495;SDS011;3789;47.064;15.482;2023-04-25T06:01:50;3.70;;;3.40;;
7495;SDS011;3789;47.064;15.482;2023-04-25T06:04:25;5.13;;;3.58;;
7495;SDS011;3789;47.064;15.482;2023-04-25T06:06:56;4.03;;;3.15;;
7495;SDS011;3789;47.064;15.482;2023-04-25T06:09:24;3.88;;;2.67;;
7495;SDS011;3789;47.064;15.482;2023-04-25T06:11:54;3.45;;;3.15;;
7495;SDS011;3789;47.064;15.482;2023-04-25T06:14:23;5.30;;;4.00;;
7495;SDS011;3789;47.064;15.482;2023-04-25T06:16:55;4.60;;;4.20;;
7495;SDS011;3789;47.064;15.482;2023-04-25T06:19:25;5.50;;;4.93;;
7495;SDS011;3789;47.064;15.482;2023-04-25T06:21:54;5.03;;;4.63;;
7495;SDS011;3789;47.064;15.482;2023-04-25T06:24:26;5.18;;;4.78;;
7495;SDS011;3789;47.064;15.482;2023-04-25T06:26:58;4.85;;;4.45;;
7495;SDS011;3789;47.064;15.482;2023-04-25T06:29:27;4.65;;;4.13;;
7495;SDS011;3789;47.064;15.482;2023-04-25T06:31:57;4.57;;;3.75;;
7495;SDS011;3789;47.064;15.482;2023-04-25T06:34:28;4.75;;;4.32;;
7495;SDS011;3789;47.064;15.482;2023-04-25T06:37:01;5.07;;;4.20;;
7495;SDS011;3789;47.064;15.482;2023-04-25T06:39:38;5.05;;;3.50;;
7495;SDS011;3789;47.064;15.482;2023-04-25T06:42:15;4.38;;;4.03;;
7495;SDS011;3789;47.064;15.482;2023-04-25T06:44:44;4.40;;;4.00;;
7495;SDS011;3789;47.064;15.482;2023-04-25T06:47:15;3.80;;;3.50;;
7495;SDS011;3789;47.064;15.482;2023-04-25T06:49:43;6.47;;;3.80;;
7495;SDS011;3789;47.064;15.482;2023-04-25T06:52:11;4.20;;;3.90;;
7495;SDS011;3789;47.064;15.482;2023-04-25T06:54:42;3.53;;;3.22;;
7495;SDS011;3789;47.064;15.482;2023-04-25T06:57:11;4.93;;;3.53;;
7495;SDS011;3789;47.064;15.482;2023-04-25T06:59:45;4.68;;;4.03;;
7495;SDS011;3789;47.064;15.482;2023-04-25T07:02:14;4.40;;;4.00;;
7495;SDS011;3789;47.064;15.482;2023-04-25T07:04:51;4.90;;;4.50;;
7495;SDS011;3789;47.064;15.482;2023-04-25T07:07:26;4.30;;;3.90;;
7495;SDS011;3789;47.064;15.482;2023-04-25T07:10:03;3.53;;;3.22;;
7495;SDS011;3789;47.064;15.482;2023-04-25T07:12:44;3.95;;;3.55;;
7495;SDS011;3789;47.064;15.482;2023-04-25T07:15:20;3.65;;;3.00;;
7495;SDS011;3789;47.064;15.482;2023-04-25T07:17:53;3.35;;;2.83;;
7495;SDS011;3789;47.064;15.482;2023-04-25T07:20:36;4.35;;;3.88;;
7495;SDS011;3789;47.064;15.482;2023-04-25T07:23:19;4.43;;;3.92;;
7495;SDS011;3789;47.064;15.482;2023-04-25T07:26:03;4.20;;;3.88;;
7495;SDS011;3789;47.064;15.482;2023-04-25T07:28:46;5.28;;;4.30;;
7495;SDS011;3789;47.064;15.482;2023-04-25T07:31:32;4.85;;;4.05;;
7495;SDS011;3789;47.064;15.482;2023-04-25T07:34:25;4.78;;;3.88;;
7495;SDS011;3789;47.064;15.482;2023-04-25T07:37:12;3.88;;;3.58;;
7495;SDS011;3789;47.064;15.482;2023-04-25T07:39:58;5.35;;;4.03;;
7495;SDS011;3789;47.064;15.482;2023-04-25T07:43:01;3.88;;;2.80;;
7495;SDS011;3789;47.064;15.482;2023-04-25T07:45:48;2.45;;;1.70;;
7495;SDS011;3789;47.064;15.482;2023-04-25T07:48:30;2.20;;;2.00;;
7495;SDS011;3789;47.064;15.482;2023-04-25T07:51:15;4.68;;;2.40;;
7495;SDS011;3789;47.064;15.482;2023-04-25T07:57:20;3.17;;;2.45;;
7495;SDS011;3789;47.064;15.482;2023-04-25T07:59:54;3.78;;;2.20;;
7495;SDS011;3789;47.064;15.482;2023-04-25T08:02:23;2.90;;;2.58;;
7495;SDS011;3789;47.064;15.482;2023-04-25T08:04:53;2.30;;;2.10;;
7495;SDS011;3789;47.064;15.482;2023-04-25T08:07:24;3.85;;;2.20;;
7495;SDS011;3789;47.064;15.482;2023-04-25T08:09:53;2.20;;;1.95;;
7495;SDS011;3789;47.064;15.482;2023-04-25T08:12:23;2.90;;;1.63;;
7495;SDS011;3789;47.064;15.482;2023-04-25T08:15:04;1.80;;;1.70;;
7495;SDS011;3789;47.064;15.482;2023-04-25T08:17:38;2.80;;;1.80;;
7495;SDS011;3789;47.064;15.482;2023-04-25T08:20:08;1.83;;;1.70;;
7495;SDS011;3789;47.064;15.482;2023-04-25T08:22:45;2.38;;;2.00;;
7495;SDS011;3789;47.064;15.482;2023-04-25T08:25:12;2.03;;;1.75;;
7495;SDS011;3789;47.064;15.482;2023-04-25T08:27:40;1.83;;;1.63;;
7495;SDS011;3789;47.064;15.482;2023-04-25T08:30:09;2.53;;;1.55;;
7495;SDS011;3789;47.064;15.482;2023-04-25T08:32:48;3.42;;;1.55;;
7495;SDS011;3789;47.064;15.482;2023-04-25T08:35:26;2.33;;;1.75;;
7495;SDS011;3789;47.064;15.482;2023-04-25T08:37:53;2.03;;;1.33;;
7495;SDS011;3789;47.064;15.482;2023-04-25T08:40:23;1.85;;;1.52;;
7495;SDS011;3789;47.064;15.482;2023-04-25T08:42:59;2.00;;;1.40;;
7495;SDS011;3789;47.064;15.482;2023-04-25T08:45:31;2.10;;;1.70;;
7495;SDS011;3789;47.064;15.482;2023-04-25T08:48:01;2.05;;;1.65;;
7495;SDS011;3789;47.064;15.482;2023-04-25T08:50:43;3.15;;;1.77;;
7495;SDS011;3789;47.064;15.482;2023-04-25T08:53:32;2.28;;;1.50;;
7495;SDS011;3789;47.064;15.482;2023-04-25T08:56:04;1.70;;;1.60;;
7495;SDS011;3789;47.064;15.482;2023-04-25T08:58:39;1.77;;;1.50;;
7495;SDS011;3789;47.064;15.482;2023-04-25T09:01:23;2.10;;;1.50;;
7495;SDS011;3789;47.064;15.482;2023-04-25T09:03:53;1.75;;;1.50;;
7495;SDS011;3789;47.064;15.482;2023-04-25T09:06:23;1.92;;;1.60;;
7495;SDS011;3789;47.064;15.482;2023-04-25T09:09:02;2.53;;;1.30;;
7495;SDS011;3789;47.064;15.482;2023-04-25T09:11:40;2.20;;;1.50;;
7495;SDS011;3789;47.064;15.482;2023-04-25T09:14:18;1.50;;;1.40;;
7495;SDS011;3789;47.064;15.482;2023-04-25T09:17:04;2.78;;;1.63;;
7495;SDS011;3789;47.064;15.482;2023-04-25T09:19:38;1.85;;;1.63;;
7495;SDS011;3789;47.064;15.482;2023-04-25T09:22:12;2.58;;;1.60;;
7495;SDS011;3789;47.064;15.482;2023-04-25T09:24:44;2.65;;;1.40;;
7495;SDS011;3789;47.064;15.482;2023-04-25T09:27:21;3.20;;;1.45;;
7495;SDS011;3789;47.064;15.482;2023-04-25T09:29:59;1.83;;;1.33;;
7495;SDS011;3789;47.064;15.482;2023-04-25T09:32:29;2.08;;;1.60;;
7495;SDS011;3789;47.064;15.482;2023-04-25T09:34:58;2.35;;;1.40;;
7495;SDS011;3789;47.064;15.482;2023-04-25T09:37:34;2.60;;;1.50;;
7495;SDS011;3789;47.064;15.482;2023-04-25T09:40:05;1.48;;;1.27;;
7495;SDS011;3789;47.064;15.482;2023-04-25T09:42:40;2.10;;;1.50;;
7495;SDS011;3789;47.064;15.482;2023-04-25T09:45:12;2.05;;;1.40;;
7495;SDS011;3789;47.064;15.482;2023-04-25T09:47:42;2.05;;;1.50;;
7495;SDS011;3789;47.064;15.482;2023-04-25T09:50:16;1.52;;;1.40;;
7495;SDS011;3789;47.064;15.482;2023-04-25T09:52:46;1.63;;;1.40;;
7495;SDS011;3789;47.064;15.482;2023-04-25T09:55:34;1.55;;;1.45;;
7495;SDS011;3789;47.064;15.482;2023-04-25T09:58:06;2.42;;;1.58;;
7495;SDS011;3789;47.064;15.482;2023-04-25T10:00:39;2.55;;;1.38;;
7495;SDS011;3789;47.064;15.482;2023-04-25T10:03:09;1.77;;;1.55;;
7495;SDS011;3789;47.064;15.482;2023-04-25T10:05:48;1.65;;;1.30;;
7495;SDS011;3789;47.064;15.482;2023-04-25T10:08:23;1.90;;;1.50;;
7495;SDS011;3789;47.064;15.482;2023-04-25T10:11:03;1.48;;;1.38;;
7495;SDS011;3789;47.064;15.482;2023-04-25T10:13:36;2.45;;;1.48;;
7495;SDS011;3789;47.064;15.482;2023-04-25T10:16:06;2.70;;;1.30;;
7495;SDS011;3789;47.064;15.482;2023-04-25T10:18:38;1.50;;;1.40;;
7495;SDS011;3789;47.064;15.482;2023-04-25T10:21:16;1.50;;;1.40;;
7495;SDS011;3789;47.064;15.482;2023-04-25T10:23:53;1.88;;;1.77;;
7495;SDS011;3789;47.064;15.482;2023-04-25T10:26:22;4.13;;;1.50;;
7495;SDS011;3789;47.064;15.482;2023-04-25T10:29:00;1.35;;;1.25;;
7495;SDS011;3789;47.064;15.482;2023-04-25T10:31:45;2.60;;;1.60;;
7495;SDS011;3789;47.064;15.482;2023-04-25T10:34:41;1.70;;;1.40;;
7495;SDS011;3789;47.064;15.482;2023-04-25T10:37:14;1.45;;;1.35;;
7495;SDS011;3789;47.064;15.482;2023-04-25T10:39:43;1.58;;;1.40;;
7495;SDS011;3789;47.064;15.482;2023-04-25T10:42:11;2.58;;;1.52;;
7495;SDS011;3789;47.064;15.482;2023-04-25T10:44:41;1.73;;;1.30;;
7495;SDS011;3789;47.064;15.482;2023-04-25T10:47:36;1.85;;;1.40;;
7495;SDS011;3789;47.064;15.482;2023-04-25T10:50:13;1.80;;;1.40;;
7495;SDS011;3789;47.064;15.482;2023-04-25T10:52:49;2.47;;;1.70;;
7495;SDS011;3789;47.064;15.482;2023-04-25T10:55:21;1.63;;;1.40;;
7495;SDS011;3789;47.064;15.482;2023-04-25T10:57:52;1.50;;;1.20;;
7495;SDS011;3789;47.064;15.482;2023-04-25T11:00:28;2.50;;;1.52;;
7495;SDS011;3789;47.064;15.482;2023-04-25T11:03:22;1.85;;;1.63;;
7495;SDS011;3789;47.064;15.482;2023-04-25T11:05:54;2.55;;;1.45;;
7495;SDS011;3789;47.064;15.482;2023-04-25T11:08:36;2.28;;;1.45;;
7495;SDS011;3789;47.064;15.482;2023-04-25T11:11:22;2.15;;;1.55;;
7495;SDS011;3789;47.064;15.482;2023-04-25T11:13:52;2.30;;;1.55;;
7495;SDS011;3789;47.064;15.482;2023-04-25T11:16:23;2.55;;;1.50;;
7495;SDS011;3789;47.064;15.482;2023-04-25T11:19:01;3.50;;;1.67;;
7495;SDS011;3789;47.064;15.482;2023-04-25T11:21:30;1.75;;;1.38;;
7495;SDS011;3789;47.064;15.482;2023-04-25T11:24:07;2.17;;;1.38;;
7495;SDS011;3789;47.064;15.482;2023-04-25T11:26:46;1.73;;;1.48;;
7495;SDS011;3789;47.064;15.482;2023-04-25T11:29:15;2.03;;;1.40;;
7495;SDS011;3789;47.064;15.482;2023-04-25T11:31:44;1.77;;;1.60;;
7495;SDS011;3789;47.064;15.482;2023-04-25T11:34:17;3.60;;;1.50;;
7495;SDS011;3789;47.064;15.482;2023-04-25T11:36:47;2.13;;;1.40;;
7495;SDS011;3789;47.064;15.482;2023-04-25T11:39:23;2.38;;;1.65;;
7495;SDS011;3789;47.064;15.482;2023-04-25T11:42:01;1.40;;;1.20;;
7495;SDS011;3789;47.064;15.482;2023-04-25T11:44:38;2.25;;;1.60;;
7495;SDS011;3789;47.064;15.482;2023-04-25T11:47:07;2.25;;;1.30;;
7495;SDS011;3789;47.064;15.482;2023-04-25T11:49:37;1.50;;;1.40;;
7495;SDS011;3789;47.064;15.482;2023-04-25T11:52:07;1.40;;;1.30;;
7495;SDS011;3789;47.064;15.482;2023-04-25T11:54:41;2.90;;;1.50;;
7495;SDS011;3789;47.064;15.482;2023-04-25T11:57:18;1.30;;;1.20;;
7495;SDS011;3789;47.064;15.482;2023-04-25T11:59:49;1.80;;;1.23;;
7495;SDS011;3789;47.064;15.482;2023-04-25T12:02:25;1.45;;;1.33;;
7495;SDS011;3789;47.064;15.482;2023-04-25T12:04:59;1.30;;;1.20;;
7495;SDS011;3789;47.064;15.482;2023-04-25T12:07:57;2.47;;;1.30;;
7495;SDS011;3789;47.064;15.482;2023-04-25T12:10:53;2.00;;;1.45;;
7495;SDS011;3789;47.064;15.482;2023-04-25T12:13:31;1.25;;;1.15;;
7495;SDS011;3789;47.064;15.482;2023-04-25T12:16:03;2.33;;;1.35;;
7495;SDS011;3789;47.064;15.482;2023-04-25T12:18:35;1.65;;;1.30;;
7495;SDS011;3789;47.064;15.482;2023-04-25T12:21:09;1.48;;;1.38;;
7495;SDS011;3789;47.064;15.482;2023-04-25T12:23:38;1.40;;;1.20;;
7495;SDS011;3789;47.064;15.482;2023-04-25T12:26:08;2.50;;;1.27;;
7495;SDS011;3789;47.064;15.482;2023-04-25T12:28:39;1.92;;;1.40;;
7495;SDS011;3789;47.064;15.482;2023-04-25T12:31:19;2.08;;;1.40;;
7495;SDS011;3789;47.064;15.482;2023-04-25T12:33:58;2.17;;;1.20;;
7495;SDS011;3789;47.064;15.482;2023-04-25T12:36:34;2.60;;;1.20;;
7495;SDS011;3789;47.064;15.482;2023-04-25T12:39:04;1.38;;;1.27;;
7495;SDS011;3789;47.064;15.482;2023-04-25T12:41:36;2.90;;;1.17;;
7495;SDS011;3789;47.064;15.482;2023-04-25T12:44:13;3.08;;;1.20;;
7495;SDS011;3789;47.064;15.482;2023-04-25T12:46:43;1.55;;;1.15;;
7495;SDS011;3789;47.064;15.482;2023-04-25T12:49:13;3.08;;;1.23;;
7495;SDS011;3789;47.064;15.482;2023-04-25T12:51:44;1.52;;;1.42;;
7495;SDS011;3789;47.064;15.482;2023-04-25T12:54:14;1.75;;;1.30;;
7495;SDS011;3789;47.064;15.482;2023-04-25T12:56:45;1.30;;;1.20;;
7495;SDS011;3789;47.064;15.482;2023-04-25T12:59:15;2.50;;;1.38;;
7495;SDS011;3789;47.064;15.482;2023-04-25T13:01:46;2.38;;;1.23;;
7495;SDS011;3789;47.064;15.482;2023-04-25T13:04:15;2.85;;;1.20;;
7495;SDS011;3789;47.064;15.482;2023-04-25T13:06:49;1.38;;;1.13;;
7495;SDS011;3789;47.064;15.482;2023-04-25T13:09:18;2.28;;;1.40;;
7495;SDS011;3789;47.064;15.482;2023-04-25T13:11:45;2.40;;;1.73;;
7495;SDS011;3789;47.064;15.482;2023-04-25T13:14:15;2.30;;;1.60;;
7495;SDS011;3789;47.064;15.482;2023-04-25T13:16:52;1.83;;;1.30;;
7495;SDS011;3789;47.064;15.482;2023-04-25T13:19:30;3.22;;;1.42;;
7495;SDS011;3789;47.064;15.482;2023-04-25T13:22:01;1.30;;;1.20;;
7495;SDS011;3789;47.064;15.482;2023-04-25T13:24:31;1.38;;;1.27;;
7495;SDS011;3789;47.064;15.482;2023-04-25T13:27:03;1.92;;;1.30;;
7495;SDS011;3789;47.064;15.482;2023-04-25T13:29:31;2.28;;;1.30;;
7495;SDS011;3789;47.064;15.482;2023-04-25T13:32:02;1.40;;;1.30;;
7495;SDS011;3789;47.064;15.482;2023-04-25T13:34:40;1.60;;;1.50;;
7495;SDS011;3789;47.064;15.482;2023-04-25T13:37:09;3.00;;;1.65;;
7495;SDS011;3789;47.064;15.482;2023-04-25T13:39:39;1.75;;;1.40;;
7495;SDS011;3789;47.064;15.482;2023-04-25T13:42:09;1.58;;;1.48;;
7495;SDS011;3789;47.064;15.482;2023-04-25T13:44:39;3.78;;;1.50;;
7495;SDS011;3789;47.064;15.482;2023-04-25T13:47:08;1.40;;;1.23;;
7495;SDS011;3789;47.064;15.482;2023-04-25T13:49:45;2.17;;;1.42;;
7495;SDS011;3789;47.064;15.482;2023-04-25T13:52:17;1.25;;;1.15;;
7495;SDS011;3789;47.064;15.482;2023-04-25T13:54:50;1.48;;;1.30;;
7495;SDS011;3789;47.064;15.482;2023-04-25T13:57:19;1.40;;;1.30;;
7495;SDS011;3789;47.064;15.482;2023-04-25T13:59:49;1.30;;;1.20;;
7495;SDS011;3789;47.064;15.482;2023-04-25T14:02:17;1.50;;;1.40;;
7495;SDS011;3789;47.064;15.482;2023-04-25T14:04:47;2.08;;;1.30;;
7495;SDS011;3789;47.064;15.482;2023-04-25T14:07:15;1.67;;;1.30;;
7495;SDS011;3789;47.064;15.482;2023-04-25T14:09:51;2.58;;;1.23;;
7495;SDS011;3789;47.064;15.482;2023-04-25T14:12:21;2.20;;;1.10;;
7495;SDS011;3789;47.064;15.482;2023-04-25T14:14:50;1.30;;;1.20;;
7495;SDS011;3789;47.064;15.482;2023-04-25T14:17:19;3.70;;;1.50;;
7495;SDS011;3789;47.064;15.482;2023-04-25T14:19:50;4.18;;;1.33;;
7495;SDS011;3789;47.064;15.482;2023-04-25T14:22:17;2.13;;;1.20;;
7495;SDS011;3789;47.064;15.482;2023-04-25T14:24:44;1.88;;;1.33;;
7495;SDS011;3789;47.064;15.482;2023-04-25T14:27:13;1.20;;;1.10;;
7495;SDS011;3789;47.064;15.482;2023-04-25T14:29:42;1.58;;;1.48;;
7495;SDS011;3789;47.064;15.482;2023-04-25T14:32:15;3.35;;;1.17;;
7495;SDS011;3789;47.064;15.482;2023-04-25T14:34:44;2.38;;;1.27;;
7495;SDS011;3789;47.064;15.482;2023-04-25T14:37:24;2.55;;;1.30;;
7495;SDS011;3789;47.064;15.482;2023-04-25T14:39:54;2.35;;;1.60;;
7495;SDS011;3789;47.064;15.482;2023-04-25T14:42:31;1.35;;;1.25;;
7495;SDS011;3789;47.064;15.482;2023-04-25T14:45:03;1.40;;;1.30;;
7495;SDS011;3789;47.064;15.482;2023-04-25T14:47:42;1.65;;;1.27;;
7495;SDS011;3789;47.064;15.482;2023-04-25T14:50:22;1.70;;;1.50;;
7495;SDS011;3789;47.064;15.482;2023-04-25T14:52:54;1.73;;;1.10;;
7495;SDS011;3789;47.064;15.482;2023-04-25T14:55:30;2.53;;;1.27;;
7495;SDS011;3789;47.064;15.482;2023-04-25T14:57:58;1.83;;;1.58;;
7495;SDS011;3789;47.064;15.482;2023-04-25T15:00:28;2.33;;;1.30;;
7495;SDS011;3789;47.064;15.482;2023-04-25T15:03:01;1.38;;;1.27;;
7495;SDS011;3789;47.064;15.482;2023-04-25T15:05:30;2.25;;;1.45;;
7495;SDS011;3789;47.064;15.482;2023-04-25T15:07:57;1.35;;;1.25;;
7495;SDS011;3789;47.064;15.482;2023-04-25T15:10:27;1.65;;;1.42;;
7495;SDS011;3789;47.064;15.482;2023-04-25T15:12:59;2.03;;;1.30;;
7495;SDS011;3789;47.064;15.482;2023-04-25T15:15:28;1.50;;;1.40;;
7495;SDS011;3789;47.064;15.482;2023-04-25T15:17:57;3.50;;;1.35;;
7495;SDS011;3789;47.064;15.482;2023-04-25T15:20:28;1.35;;;1.23;;
7495;SDS011;3789;47.064;15.482;2023-04-25T15:22:57;1.40;;;1.20;;
7495;SDS011;3789;47.064;15.482;2023-04-25T15:25:24;1.30;;;1.20;;
7495;SDS011;3789;47.064;15.482;2023-04-25T15:27:56;3.22;;;1.30;;
7495;SDS011;3789;47.064;15.482;2023-04-25T15:30:25;1.30;;;1.20;;
7495;SDS011;3789;47.064;15.482;2023-04-25T15:32:54;2.90;;;1.20;;
7495;SDS011;3789;47.064;15.482;2023-04-25T15:35:21;1.83;;;1.17;;
7495;SDS011;3789;47.064;15.482;2023-04-25T15:37:51;1.45;;;1.10;;
7495;SDS011;3789;47.064;15.482;2023-04-25T15:40:20;1.10;;;1.00;;